createdAt,value
2019-03-21T00:01:23.940Z,6.90
2019-03-21T00:06:31.580Z,6.90
2019-03-21T00:12:02.485Z,6.90
2019-03-21T00:17:10.264Z,6.90
2019-03-21T00:22:18.014Z,6.80
2019-03-21T00:27:25.964Z,6.80
2019-03-21T00:32:33.590Z,6.70
2019-03-21T00:37:41.289Z,6.70
2019-03-21T00:42:48.934Z,6.60
2019-03-21T00:47:56.577Z,6.60
2019-03-21T00:53:04.412Z,6.60
2019-03-21T00:58:12.124Z,6.50
2019-03-21T01:03:19.858Z,6.40
2019-03-21T01:08:27.618Z,6.50
2019-03-21T01:13:36.075Z,6.50
2019-03-21T01:18:43.742Z,6.50
2019-03-21T01:23:51.538Z,6.40
2019-03-21T01:29:00.138Z,6.40
2019-03-21T01:34:08.278Z,6.50
2019-03-21T01:39:16.039Z,6.50
2019-03-21T01:44:23.691Z,6.50
2019-03-21T01:49:31.337Z,6.50
2019-03-21T01:54:38.931Z,6.50
2019-03-21T01:59:46.608Z,6.50
2019-03-21T02:04:55.489Z,6.50
2019-03-21T02:10:03.518Z,6.40
2019-03-21T02:15:12.606Z,6.30
2019-03-21T02:20:20.352Z,6.30
2019-03-21T02:25:29.182Z,6.40
2019-03-21T02:30:37.578Z,6.40
2019-03-21T02:35:46.301Z,6.30
2019-03-21T02:40:55.364Z,6.40
2019-03-21T02:46:03.250Z,6.40
2019-03-21T02:51:10.995Z,6.30
2019-03-21T02:56:19.553Z,6.30
2019-03-21T03:01:27.197Z,6.30
2019-03-21T03:06:34.975Z,6.40
2019-03-21T03:11:42.740Z,6.40
2019-03-21T03:16:50.358Z,6.40
2019-03-21T03:21:58.014Z,6.40
2019-03-21T03:27:06.679Z,6.30
2019-03-21T03:32:14.324Z,6.30
2019-03-21T03:37:22.378Z,6.30
2019-03-21T03:42:30.163Z,6.30
2019-03-21T03:47:37.817Z,6.30
2019-03-21T03:52:46.335Z,6.30
2019-03-21T03:57:55.605Z,6.30
2019-03-21T04:03:03.210Z,6.20
2019-03-21T04:08:12.045Z,6.20
2019-03-21T04:13:19.770Z,6.10
2019-03-21T04:18:27.403Z,6.00
2019-03-21T04:23:35.137Z,6.00
2019-03-21T04:28:43.129Z,6.10
2019-03-21T04:33:51.339Z,6.10
2019-03-21T04:38:59.615Z,6.10
2019-03-21T04:44:07.281Z,6.20
2019-03-21T04:49:14.983Z,6.10
2019-03-21T04:54:22.718Z,6.10
2019-03-21T04:59:30.310Z,6.10
2019-03-21T05:04:38.051Z,6.10
2019-03-21T05:09:45.816Z,6.10
2019-03-21T05:14:53.468Z,6.20
2019-03-21T05:20:01.127Z,6.30
2019-03-21T05:25:10.015Z,6.30
2019-03-21T05:30:21.211Z,6.30
2019-03-21T05:35:29.923Z,6.30
2019-03-21T05:40:38.707Z,6.40
2019-03-21T05:45:47.324Z,6.50
2019-03-21T05:50:54.951Z,6.50
2019-03-21T05:56:02.579Z,6.50
2019-03-21T06:01:11.210Z,6.60
2019-03-21T06:06:32.912Z,6.50
2019-03-21T06:11:42.158Z,6.60
2019-03-21T06:16:49.921Z,6.70
2019-03-21T06:22:53.180Z,6.70
2019-03-21T06:28:00.908Z,6.80
2019-03-21T06:33:09.333Z,6.90
2019-03-21T06:38:16.938Z,6.90
2019-03-21T06:43:24.657Z,6.90
2019-03-21T06:48:32.369Z,6.80
2019-03-21T06:53:40.048Z,7.00
2019-03-21T06:58:47.799Z,7.10
2019-03-21T07:04:06.293Z,7.20
2019-03-21T07:09:06.325Z,7.20
2019-03-21T07:14:13.965Z,7.20
2019-03-21T07:19:21.592Z,7.30
2019-03-21T07:24:29.309Z,7.20
2019-03-21T07:29:37.054Z,7.30
2019-03-21T07:34:45.099Z,7.30
2019-03-21T07:39:52.748Z,7.40
2019-03-21T07:45:00.437Z,7.50
2019-03-21T07:50:09.174Z,7.60
2019-03-21T07:55:16.811Z,7.60
2019-03-21T08:00:24.508Z,7.60
2019-03-21T08:05:40.315Z,7.50
2019-03-21T08:10:41.500Z,7.40
2019-03-21T08:15:49.111Z,7.40
2019-03-21T08:20:59.895Z,7.50
2019-03-21T08:26:06.680Z,7.50
2019-03-21T08:31:22.425Z,7.40
2019-03-21T08:36:31.277Z,7.60
2019-03-21T08:41:39.741Z,7.80
2019-03-21T08:46:47.331Z,7.90
2019-03-21T08:51:55.529Z,8.10
2019-03-21T08:57:03.252Z,8.20
2019-03-21T09:02:10.955Z,8.30
2019-03-21T09:07:18.593Z,8.60
2019-03-21T09:12:26.469Z,9.10
2019-03-21T09:17:34.123Z,9.40
2019-03-21T09:22:41.983Z,9.60
2019-03-21T09:28:02.123Z,10.00
2019-03-21T09:33:01.985Z,10.40
2019-03-21T09:38:09.977Z,10.60
2019-03-21T09:43:17.863Z,10.50
2019-03-21T09:48:26.761Z,11.00
2019-03-21T09:53:34.415Z,10.60
2019-03-21T09:58:42.977Z,10.80
2019-03-21T10:03:50.578Z,10.90
2019-03-21T10:08:58.331Z,11.00
2019-03-21T10:14:06.526Z,10.70
2019-03-21T10:19:14.122Z,10.80
2019-03-21T10:24:21.870Z,11.20
2019-03-21T10:29:29.652Z,11.60
2019-03-21T10:34:37.542Z,11.90
2019-03-21T10:39:45.263Z,11.90
2019-03-21T10:44:52.960Z,11.80
2019-03-21T10:50:00.728Z,11.70
2019-03-21T10:55:08.562Z,11.80
2019-03-21T11:00:16.552Z,12.00
2019-03-21T11:05:24.222Z,12.10
2019-03-21T11:10:33.131Z,12.20
2019-03-21T11:15:41.192Z,11.90
2019-03-21T11:20:49.057Z,11.70
2019-03-21T11:25:56.835Z,11.60
2019-03-21T11:31:04.516Z,11.50
2019-03-21T11:36:12.153Z,11.10
2019-03-21T11:41:19.936Z,11.10
2019-03-21T11:46:27.567Z,11.20
2019-03-21T11:51:35.388Z,11.70
2019-03-21T11:56:43.258Z,11.90
2019-03-21T12:01:50.939Z,12.00
2019-03-21T12:06:58.987Z,12.10
2019-03-21T12:12:06.575Z,12.00
2019-03-21T12:17:14.329Z,11.90
2019-03-21T12:22:30.028Z,12.00
2019-03-21T12:27:31.539Z,12.00
2019-03-21T12:32:39.177Z,11.90
2019-03-21T12:37:47.223Z,11.90
2019-03-21T12:42:54.999Z,11.70
2019-03-21T12:48:03.889Z,11.80
2019-03-21T12:53:11.802Z,11.80
2019-03-21T12:58:19.471Z,11.60
2019-03-21T13:03:27.085Z,11.40
2019-03-21T13:08:35.492Z,11.40
2019-03-21T13:13:43.201Z,11.30
2019-03-21T13:18:50.863Z,11.10
2019-03-21T13:23:58.508Z,10.90
2019-03-21T13:29:06.542Z,10.80
2019-03-21T13:34:14.136Z,10.70
2019-03-21T13:39:22.017Z,10.80
2019-03-21T13:44:29.830Z,11.00
2019-03-21T13:49:38.191Z,11.20
2019-03-21T13:54:45.987Z,11.40
2019-03-21T13:59:54.035Z,11.60
2019-03-21T14:05:01.748Z,11.50
2019-03-21T14:10:09.938Z,11.30
2019-03-21T14:15:18.300Z,11.20
2019-03-21T14:20:25.948Z,11.10
2019-03-21T14:25:33.585Z,11.00
2019-03-21T14:30:42.434Z,10.90
2019-03-21T14:35:50.124Z,10.70
2019-03-21T14:40:57.772Z,10.70
2019-03-21T14:46:06.446Z,10.60
2019-03-21T14:51:16.269Z,10.50
2019-03-21T14:56:24.130Z,10.60
2019-03-21T15:01:31.741Z,10.60
2019-03-21T15:06:39.342Z,10.60
2019-03-21T15:11:47.124Z,10.70
2019-03-21T15:16:55.420Z,10.70
2019-03-21T15:22:03.074Z,10.70
2019-03-21T15:27:11.284Z,10.70
2019-03-21T15:32:20.341Z,10.70
2019-03-21T15:37:28.032Z,10.80
2019-03-21T15:42:35.641Z,10.70
2019-03-21T15:47:44.290Z,10.80
2019-03-21T15:52:52.198Z,10.80
2019-03-21T15:57:59.810Z,10.80
2019-03-21T16:03:08.766Z,10.70
2019-03-21T16:08:16.512Z,10.80
2019-03-21T16:13:24.108Z,10.70
2019-03-21T16:18:31.847Z,10.70
2019-03-21T16:23:39.514Z,10.70
2019-03-21T16:28:47.205Z,10.70
2019-03-21T16:33:54.840Z,10.70
2019-03-21T16:39:02.488Z,10.70
2019-03-21T16:44:11.125Z,10.70
2019-03-21T16:49:18.789Z,10.60
2019-03-21T16:54:26.550Z,10.60
2019-03-21T16:59:34.186Z,10.60
2019-03-21T17:04:41.807Z,10.50
2019-03-21T17:09:49.519Z,10.50
2019-03-21T17:14:57.163Z,10.50
2019-03-21T17:20:05.283Z,10.40
2019-03-21T17:25:13.267Z,10.30
2019-03-21T17:30:21.701Z,10.40
2019-03-21T17:35:29.603Z,10.30
2019-03-21T17:40:37.958Z,10.30
2019-03-21T17:45:45.631Z,10.30
2019-03-21T17:50:53.785Z,10.30
2019-03-21T17:56:01.699Z,10.30
2019-03-21T18:01:09.568Z,10.30
2019-03-21T18:06:17.662Z,10.40
2019-03-21T18:11:27.130Z,10.30
2019-03-21T18:16:34.790Z,10.40
2019-03-21T18:21:42.536Z,10.50
2019-03-21T18:26:50.302Z,10.50
2019-03-21T18:31:58.015Z,10.60
2019-03-21T18:37:06.436Z,10.60
2019-03-21T18:42:14.415Z,10.60
2019-03-21T18:47:22.035Z,10.70
2019-03-21T18:52:31.677Z,10.70
2019-03-21T18:57:39.489Z,10.70
2019-03-21T19:02:47.377Z,10.70
2019-03-21T19:07:55.030Z,10.70
2019-03-21T19:13:04.845Z,10.60
2019-03-21T19:18:12.545Z,10.60
2019-03-21T19:23:20.369Z,10.60
2019-03-21T19:28:28.084Z,10.60
2019-03-21T19:33:36.817Z,10.50
2019-03-21T19:38:44.559Z,10.50
2019-03-21T19:43:52.320Z,10.40
2019-03-21T19:49:00.085Z,10.40
2019-03-21T19:54:07.827Z,10.20
2019-03-21T19:59:15.578Z,10.10
2019-03-21T20:04:23.282Z,10.00
2019-03-21T20:09:31.213Z,9.90
2019-03-21T20:14:40.080Z,9.70
2019-03-21T20:19:48.207Z,9.60
2019-03-21T20:24:57.585Z,9.50
2019-03-21T20:30:07.629Z,9.40
2019-03-21T20:35:15.311Z,9.30
2019-03-21T20:40:23.252Z,9.20
2019-03-21T20:45:30.857Z,9.20
2019-03-21T20:50:38.903Z,9.10
2019-03-21T20:55:53.563Z,9.10
2019-03-21T21:00:55.767Z,9.10
2019-03-21T21:06:04.086Z,9.10
2019-03-21T21:11:11.727Z,9.20
2019-03-21T21:16:19.392Z,9.10
2019-03-21T21:21:26.983Z,9.10
2019-03-21T21:26:34.764Z,9.10
2019-03-21T21:31:42.528Z,9.10
2019-03-21T21:36:51.376Z,9.10
2019-03-21T21:41:59.393Z,9.10
2019-03-21T21:47:07.244Z,9.10
2019-03-21T21:52:15.283Z,9.10
2019-03-21T21:57:23.076Z,9.20
2019-03-21T22:02:30.761Z,9.10
2019-03-21T22:07:38.379Z,9.20
2019-03-21T22:12:46.081Z,9.20
2019-03-21T22:17:55.159Z,9.20
2019-03-21T22:23:02.994Z,9.20
2019-03-21T22:28:10.595Z,9.20
2019-03-21T22:33:18.290Z,9.20
2019-03-21T22:38:26.623Z,9.20
2019-03-21T22:43:34.281Z,9.10
2019-03-21T22:48:41.910Z,9.10
2019-03-21T22:53:49.828Z,9.00
2019-03-21T22:58:57.477Z,9.00
2019-03-21T23:04:05.156Z,9.00
2019-03-21T23:09:13.006Z,9.00
2019-03-21T23:14:22.638Z,8.90
2019-03-21T23:19:30.293Z,8.90
2019-03-21T23:24:38.120Z,8.90
2019-03-21T23:29:45.865Z,8.90
2019-03-21T23:34:53.467Z,8.80
2019-03-21T23:40:01.107Z,8.80
2019-03-21T23:45:09.873Z,8.70
2019-03-21T23:50:17.685Z,8.60
2019-03-21T23:55:25.370Z,8.60
